Page Field Fort Myers US
ICAO: KFMY
IATA: FMY
Category: Medium
Scheduled Services: No

Elevation: 17 ft
TransAlt. 18000 ft.

Airport Communications:
FORT MYERS APP/DEP:126.8
ATIS:123.725
CLNC DEL:121.7
CTAF:119
GND:121.7
MIAMI RDO:122.2
TWR:119
UNICOM:130.55

KFMY Zoom In..

If Map Doesn't Load, Click Here

Runways:

(A) RW 05 length 6406 ft width 150 ft
ILS 110.70 / hdg 51

(B) RW 13 length 4912 ft width 150 ft
---- / hdg 133

(C) RW 23 length 6406 ft width 150 ft
---- / hdg 231

(D) RW 31 length 4912 ft width 150 ft
---- / hdg 313

Location; KFMY
Day. 21 / Time. 15.53 Zulu
* Altimeter: 30.06
* Temperature: 31° c. 87.8°f.
* Wind from: 100° Speed 06 kn.
Dewpoint: 23° c.
Visibility: 10 Statute Miles.
Clouds: Scattered 3000 ft.
Clouds: Broken 4400 ft.
Clouds: Broken 5500 ft.

KFMY 211553Z 10006KT 10SM SCT030 BKN044 BKN055 31/23 A3006 RMK AO2 SLP180 T03060228 $


Wind From 100°
Speed 06 kn.

 
 
jpsmedia.com for Web Design worldairports.se 2018   terms of use